createdAt,value
2023-05-03T00:00:29.427Z,12.73
2023-05-03T00:02:58.176Z,13.50
2023-05-03T00:05:27.997Z,12.23
2023-05-03T00:07:56.912Z,12.30
2023-05-03T00:10:25.010Z,13.23
2023-05-03T00:12:54.328Z,11.97
2023-05-03T00:15:22.330Z,11.77
2023-05-03T00:17:50.358Z,12.60
2023-05-03T00:20:19.210Z,12.90
2023-05-03T00:22:47.216Z,13.47
2023-05-03T00:25:15.254Z,13.43
2023-05-03T00:27:43.190Z,13.50
2023-05-03T00:30:13.394Z,13.27
2023-05-03T00:32:41.546Z,12.30
2023-05-03T00:35:09.836Z,13.10
2023-05-03T00:37:38.585Z,12.73
2023-05-03T00:40:07.777Z,12.40
2023-05-03T00:42:36.716Z,13.50
2023-05-03T00:45:06.115Z,13.10
2023-05-03T00:47:35.742Z,14.37
2023-05-03T00:50:04.793Z,12.53
2023-05-03T00:52:33.095Z,12.00
2023-05-03T00:55:01.541Z,12.70
2023-05-03T00:57:30.948Z,12.97
2023-05-03T00:59:59.538Z,12.17
2023-05-03T01:02:28.075Z,13.93
2023-05-03T01:04:58.261Z,12.30
2023-05-03T01:07:36.696Z,12.00
2023-05-03T01:10:13.369Z,12.53
2023-05-03T01:12:48.450Z,12.57
2023-05-03T01:15:22.140Z,12.20
2023-05-03T01:17:53.603Z,13.90
2023-05-03T01:20:25.665Z,13.00
2023-05-03T01:23:06.478Z,13.13
2023-05-03T01:25:35.832Z,13.13
2023-05-03T01:28:03.853Z,12.90
2023-05-03T01:30:34.007Z,13.73
2023-05-03T01:33:06.840Z,13.63
2023-05-03T01:35:41.151Z,13.90
2023-05-03T01:38:10.146Z,17.70
2023-05-03T01:40:43.135Z,15.20
2023-05-03T01:43:13.305Z,14.60
2023-05-03T01:45:42.234Z,14.80
2023-05-03T01:48:12.157Z,14.40
2023-05-03T01:50:40.285Z,17.40
2023-05-03T01:53:08.328Z,16.37
2023-05-03T01:55:36.377Z,16.00
2023-05-03T01:58:06.124Z,15.20
2023-05-03T02:00:34.106Z,18.63
2023-05-03T02:03:02.499Z,20.23
2023-05-03T02:05:30.768Z,18.60
2023-05-03T02:07:58.817Z,21.33
2023-05-03T02:10:26.758Z,20.03
2023-05-03T02:12:54.708Z,23.10
2023-05-03T02:15:24.040Z,21.47
2023-05-03T02:17:52.036Z,22.33
2023-05-03T02:20:20.084Z,22.60
2023-05-03T02:22:48.030Z,22.53
2023-05-03T02:25:16.036Z,23.10
2023-05-03T02:27:43.989Z,21.50
2023-05-03T02:30:13.419Z,22.43
2023-05-03T02:32:42.855Z,23.60
2023-05-03T02:35:11.628Z,21.87
2023-05-03T02:37:39.563Z,21.00
2023-05-03T02:40:09.793Z,24.10
2023-05-03T02:42:37.827Z,22.50
2023-05-03T02:45:06.586Z,23.63
2023-05-03T02:47:34.690Z,22.83
2023-05-03T02:50:04.504Z,21.20
2023-05-03T02:52:32.854Z,22.20
2023-05-03T02:55:01.081Z,22.00
2023-05-03T02:57:29.049Z,24.33
2023-05-03T02:59:57.022Z,22.60
2023-05-03T03:02:25.127Z,23.80
2023-05-03T03:04:53.273Z,24.07
2023-05-03T03:07:22.665Z,24.13
2023-05-03T03:09:50.640Z,22.50
2023-05-03T03:12:18.704Z,19.57
2023-05-03T03:14:46.668Z,21.43
2023-05-03T03:17:14.607Z,21.43
2023-05-03T03:19:42.655Z,22.50
2023-05-03T03:22:10.602Z,21.60
2023-05-03T03:24:39.944Z,22.97
2023-05-03T03:27:07.928Z,19.03
2023-05-03T03:29:36.709Z,21.20
2023-05-03T03:32:04.939Z,21.50
2023-05-03T03:34:33.284Z,20.20
2023-05-03T03:37:01.546Z,21.70
2023-05-03T03:39:29.502Z,21.27
2023-05-03T03:41:58.927Z,20.30
2023-05-03T03:44:26.861Z,20.33
2023-05-03T03:46:54.824Z,21.30
2023-05-03T03:49:22.880Z,19.77
2023-05-03T03:51:50.828Z,20.00
2023-05-03T03:54:18.884Z,19.87
2023-05-03T03:56:46.799Z,21.23
2023-05-03T03:59:16.201Z,19.77
2023-05-03T04:01:44.804Z,20.27
2023-05-03T04:04:13.215Z,18.97
2023-05-03T04:06:41.304Z,19.50
2023-05-03T04:09:10.330Z,18.70
2023-05-03T04:11:38.941Z,18.30
2023-05-03T04:14:06.964Z,19.70
2023-05-03T04:16:36.414Z,20.43
2023-05-03T04:19:04.589Z,17.93
2023-05-03T04:21:32.832Z,19.57
2023-05-03T04:24:02.004Z,18.90
2023-05-03T04:26:32.164Z,20.00
2023-05-03T04:29:00.661Z,19.13
2023-05-03T04:31:28.723Z,18.97
2023-05-03T04:33:58.168Z,17.70
2023-05-03T04:36:26.678Z,18.90
2023-05-03T04:38:54.813Z,18.60
2023-05-03T04:41:22.759Z,17.07
2023-05-03T04:43:50.789Z,19.20
2023-05-03T04:46:19.008Z,18.73
2023-05-03T04:48:47.032Z,19.93
2023-05-03T04:51:16.341Z,18.30
2023-05-03T04:53:44.242Z,18.70
2023-05-03T04:56:12.220Z,17.77
2023-05-03T04:58:40.150Z,17.57
2023-05-03T05:01:08.160Z,16.80
2023-05-03T05:03:36.358Z,17.87
2023-05-03T05:06:06.928Z,15.53
2023-05-03T05:08:36.296Z,17.43
2023-05-03T05:11:05.321Z,17.50
2023-05-03T05:13:33.465Z,17.10
2023-05-03T05:16:01.483Z,17.00
2023-05-03T05:18:29.487Z,15.20
2023-05-03T05:20:57.609Z,14.80
2023-05-03T05:23:25.541Z,14.80
2023-05-03T05:25:54.923Z,14.77
2023-05-03T05:28:22.864Z,15.90
2023-05-03T05:30:51.613Z,13.97
2023-05-03T05:33:19.740Z,15.13
2023-05-03T05:35:49.156Z,14.33
2023-05-03T05:38:18.263Z,14.93
2023-05-03T05:40:46.245Z,15.53
2023-05-03T05:43:15.541Z,14.67
2023-05-03T05:45:43.512Z,14.47
2023-05-03T05:48:11.749Z,12.70
2023-05-03T05:50:39.745Z,13.00
2023-05-03T05:53:09.049Z,12.20
2023-05-03T05:55:37.126Z,13.23
2023-05-03T05:58:05.458Z,13.60
2023-05-03T06:00:35.019Z,12.40
2023-05-03T06:03:03.205Z,12.00
2023-05-03T06:05:31.277Z,12.30
2023-05-03T06:07:59.817Z,13.50
2023-05-03T06:10:27.881Z,12.33
2023-05-03T06:12:55.831Z,11.97
2023-05-03T06:15:23.925Z,12.83
2023-05-03T06:17:53.407Z,13.10
2023-05-03T06:20:21.390Z,13.00
2023-05-03T06:22:49.389Z,12.30
2023-05-03T06:25:18.248Z,12.83
2023-05-03T06:27:46.334Z,10.80
2023-05-03T06:30:15.011Z,11.03
2023-05-03T06:32:43.501Z,10.70
2023-05-03T06:35:13.051Z,10.67
2023-05-03T06:37:41.112Z,11.00
2023-05-03T06:40:09.993Z,11.20
2023-05-03T06:42:38.031Z,11.07
2023-05-03T06:45:07.564Z,11.10
2023-05-03T06:47:37.131Z,12.53
2023-05-03T06:50:05.970Z,10.67
2023-05-03T06:52:35.486Z,11.30
2023-05-03T06:55:04.755Z,10.93
2023-05-03T06:57:32.682Z,10.60
2023-05-03T07:00:00.798Z,9.60
2023-05-03T07:02:29.297Z,10.10
2023-05-03T07:04:57.324Z,10.77
2023-05-03T07:07:25.355Z,10.60
2023-05-03T07:09:54.728Z,10.53
2023-05-03T07:12:27.459Z,10.57
2023-05-03T07:14:56.622Z,10.07
2023-05-03T07:17:25.436Z,10.47
2023-05-03T07:19:53.568Z,10.17
2023-05-03T07:22:24.577Z,9.80
2023-05-03T07:24:54.943Z,9.27
2023-05-03T07:27:23.122Z,8.70
2023-05-03T07:29:51.031Z,10.30
2023-05-03T07:32:19.062Z,9.10
2023-05-03T07:34:47.026Z,9.23
2023-05-03T07:37:15.020Z,10.07
2023-05-03T07:39:43.257Z,9.17
2023-05-03T07:42:12.724Z,9.97
2023-05-03T07:44:41.105Z,10.33
2023-05-03T07:47:09.018Z,9.23
2023-05-03T07:49:38.832Z,9.63
2023-05-03T07:52:06.842Z,8.07
2023-05-03T07:54:34.796Z,8.47
2023-05-03T07:57:03.902Z,9.87
2023-05-03T07:59:33.368Z,9.70
2023-05-03T08:02:01.932Z,8.70
2023-05-03T08:04:30.268Z,9.90
2023-05-03T08:07:01.395Z,9.70
2023-05-03T08:09:29.481Z,9.20
2023-05-03T08:11:57.992Z,8.20
2023-05-03T08:14:26.022Z,8.00
2023-05-03T08:16:55.446Z,7.83
2023-05-03T08:19:23.360Z,7.67
2023-05-03T08:21:54.428Z,8.27
2023-05-03T08:24:22.431Z,7.40
2023-05-03T08:26:50.927Z,6.60
2023-05-03T08:29:18.905Z,7.07
2023-05-03T08:31:47.261Z,6.80
2023-05-03T08:34:16.789Z,7.27
2023-05-03T08:36:44.836Z,8.10
2023-05-03T08:39:15.177Z,6.93
2023-05-03T08:41:43.551Z,6.33
2023-05-03T08:44:14.344Z,6.50
2023-05-03T08:46:44.767Z,5.67
2023-05-03T08:49:14.724Z,6.30
2023-05-03T08:51:47.127Z,5.97
2023-05-03T08:54:15.768Z,6.80
2023-05-03T08:56:45.392Z,6.43
2023-05-03T08:59:13.482Z,6.13
2023-05-03T09:01:43.207Z,6.90
2023-05-03T09:04:12.466Z,5.97
2023-05-03T09:06:40.809Z,5.20
2023-05-03T09:09:10.982Z,6.07
2023-05-03T09:11:40.217Z,6.80
2023-05-03T09:14:13.398Z,5.10
2023-05-03T09:16:44.436Z,6.10
2023-05-03T09:19:13.619Z,5.73
2023-05-03T09:21:42.904Z,5.47
2023-05-03T09:24:16.150Z,5.83
2023-05-03T09:26:45.688Z,4.97
2023-05-03T09:29:29.699Z,5.60
2023-05-03T09:32:02.329Z,5.10
2023-05-03T09:34:30.334Z,4.30
2023-05-03T09:36:58.567Z,4.50
2023-05-03T09:39:27.918Z,4.63
2023-05-03T09:41:55.903Z,5.50
2023-05-03T09:44:42.305Z,5.43
2023-05-03T09:47:11.092Z,5.03
2023-05-03T09:49:39.864Z,5.23
2023-05-03T09:52:08.858Z,4.80
2023-05-03T09:54:39.026Z,5.37
2023-05-03T09:57:08.323Z,4.43
2023-05-03T09:59:39.465Z,4.80
2023-05-03T10:02:08.933Z,5.33
2023-05-03T10:04:44.639Z,4.87
2023-05-03T10:07:15.182Z,4.90
2023-05-03T10:09:46.583Z,4.90
2023-05-03T10:12:17.302Z,5.40
2023-05-03T10:14:47.003Z,5.23
2023-05-03T10:17:19.544Z,5.20
2023-05-03T10:19:53.801Z,5.10
2023-05-03T10:22:21.788Z,6.20
2023-05-03T10:25:10.529Z,5.67
2023-05-03T10:27:54.167Z,5.23
2023-05-03T10:30:31.040Z,6.00
2023-05-03T10:32:59.374Z,5.90
2023-05-03T10:35:30.353Z,5.13
2023-05-03T10:37:58.605Z,4.87
2023-05-03T10:40:42.737Z,5.30
2023-05-03T10:43:46.099Z,5.27
2023-05-03T10:46:36.484Z,5.20
2023-05-03T10:49:26.357Z,5.33
2023-05-03T10:51:54.355Z,5.50
2023-05-03T10:54:22.347Z,5.73
2023-05-03T10:56:57.076Z,5.80
2023-05-03T10:59:26.135Z,5.70
2023-05-03T11:01:55.242Z,6.13
2023-05-03T11:04:35.875Z,6.03
2023-05-03T11:07:04.593Z,5.90
2023-05-03T11:09:34.086Z,4.83
2023-05-03T11:12:08.402Z,5.27
2023-05-03T11:14:36.711Z,6.10
2023-05-03T11:17:04.840Z,5.53
2023-05-03T11:19:33.580Z,5.90
2023-05-03T11:22:02.727Z,5.80
2023-05-03T11:24:30.985Z,6.20
2023-05-03T11:26:59.135Z,5.90
2023-05-03T11:29:28.806Z,6.17
2023-05-03T11:31:57.183Z,6.10
2023-05-03T11:34:25.801Z,5.40
2023-05-03T11:36:54.011Z,5.37
2023-05-03T11:39:22.507Z,5.20
2023-05-03T11:42:04.276Z,5.80
2023-05-03T11:44:33.676Z,5.10
2023-05-03T11:47:02.259Z,5.77
2023-05-03T11:49:30.719Z,4.83
2023-05-03T11:51:59.350Z,4.90
2023-05-03T11:54:28.695Z,4.70
2023-05-03T11:56:58.840Z,4.50
2023-05-03T11:59:40.166Z,4.70
2023-05-03T12:02:10.482Z,4.87
2023-05-03T12:04:41.673Z,4.63
2023-05-03T12:07:11.036Z,4.80
2023-05-03T12:09:40.755Z,4.37
2023-05-03T12:12:10.504Z,3.80
2023-05-03T12:15:03.225Z,4.87
2023-05-03T12:17:38.205Z,4.37
2023-05-03T12:22:51.535Z,3.90
2023-05-03T12:25:21.554Z,4.63
2023-05-03T12:28:10.604Z,4.80
2023-05-03T12:30:40.739Z,4.30
2023-05-03T12:33:10.293Z,4.90
2023-05-03T12:35:40.796Z,4.80
2023-05-03T12:38:10.286Z,4.90
2023-05-03T12:40:40.709Z,5.30
2023-05-03T12:43:09.073Z,5.27
2023-05-03T12:45:40.136Z,4.27
2023-05-03T12:48:10.908Z,4.43
2023-05-03T12:50:39.839Z,3.70
2023-05-03T12:53:11.582Z,3.83
2023-05-03T12:55:43.617Z,3.27
2023-05-03T12:58:45.756Z,3.93
2023-05-03T13:03:34.595Z,3.90
2023-05-03T13:06:13.117Z,3.60
2023-05-03T13:08:49.570Z,3.70
2023-05-03T13:11:20.224Z,4.20
2023-05-03T13:13:48.286Z,4.03
2023-05-03T13:16:16.272Z,3.83
2023-05-03T13:18:45.682Z,4.47
2023-05-03T13:21:13.617Z,3.87
2023-05-03T13:23:41.651Z,4.60
2023-05-03T13:26:09.677Z,3.30
2023-05-03T13:28:37.660Z,4.10
2023-05-03T13:31:06.215Z,3.80
2023-05-03T13:33:37.911Z,4.27
2023-05-03T13:36:08.042Z,4.37
2023-05-03T13:38:36.526Z,3.30
2023-05-03T13:41:08.399Z,4.20
2023-05-03T13:43:36.393Z,3.13
2023-05-03T13:46:04.588Z,3.50
2023-05-03T13:48:32.769Z,3.57
2023-05-03T13:51:00.809Z,3.30
2023-05-03T13:53:30.201Z,2.90
2023-05-03T13:55:58.184Z,3.40
2023-05-03T13:58:26.134Z,3.50
2023-05-03T14:00:54.387Z,3.37
2023-05-03T14:03:22.543Z,3.10
2023-05-03T14:05:50.829Z,3.60
2023-05-03T14:08:18.889Z,3.40
2023-05-03T14:10:48.273Z,3.53
2023-05-03T14:13:16.327Z,3.53
2023-05-03T14:15:45.789Z,3.17
2023-05-03T14:18:14.321Z,3.90
2023-05-03T14:20:42.425Z,3.60
2023-05-03T14:23:10.761Z,3.53
2023-05-03T14:25:38.699Z,3.63
2023-05-03T14:28:08.056Z,4.30
2023-05-03T14:30:36.332Z,4.20
2023-05-03T14:33:04.577Z,3.10
2023-05-03T14:35:32.581Z,3.70
2023-05-03T14:38:00.516Z,3.20
2023-05-03T14:40:28.741Z,4.00
2023-05-03T14:42:56.724Z,3.33
2023-05-03T14:45:26.162Z,3.40
2023-05-03T14:47:54.227Z,3.53
2023-05-03T14:50:22.153Z,4.47
2023-05-03T14:52:50.076Z,4.30
2023-05-03T14:55:18.010Z,4.10
2023-05-03T14:57:46.143Z,3.60
2023-05-03T15:00:17.573Z,3.87
2023-05-03T15:02:48.172Z,3.70
2023-05-03T15:05:16.280Z,3.93
2023-05-03T15:07:44.206Z,3.27
2023-05-03T15:10:12.531Z,4.03
2023-05-03T15:12:40.587Z,4.30
2023-05-03T15:15:11.863Z,3.33
2023-05-03T15:17:40.065Z,3.07
2023-05-03T15:20:13.709Z,3.90
2023-05-03T15:22:41.823Z,3.60
2023-05-03T15:25:10.466Z,4.00
2023-05-03T15:27:38.382Z,3.97
2023-05-03T15:30:07.820Z,3.17
2023-05-03T15:32:36.114Z,3.50
2023-05-03T15:35:04.114Z,3.50
2023-05-03T15:37:37.468Z,3.60
2023-05-03T15:40:06.975Z,3.80
2023-05-03T15:42:35.116Z,4.40
2023-05-03T15:45:03.097Z,3.77
2023-05-03T15:47:31.117Z,4.30
2023-05-03T15:49:59.155Z,3.80
2023-05-03T15:52:27.219Z,4.23
2023-05-03T15:54:56.706Z,3.80
2023-05-03T15:57:24.804Z,3.53
2023-05-03T15:59:53.106Z,3.97
2023-05-03T16:02:21.541Z,7.00
2023-05-03T16:04:50.919Z,4.10
2023-05-03T16:07:19.397Z,4.90
2023-05-03T16:09:48.321Z,3.93
2023-05-03T16:12:17.655Z,4.47
2023-05-03T16:14:46.486Z,4.23
2023-05-03T16:17:14.448Z,4.20
2023-05-03T16:19:42.354Z,3.90
2023-05-03T16:22:10.436Z,4.00
2023-05-03T16:24:38.447Z,3.77
2023-05-03T16:27:07.420Z,4.37
2023-05-03T16:29:37.600Z,3.60
2023-05-03T16:32:09.582Z,3.60
2023-05-03T16:34:38.024Z,4.60
2023-05-03T16:37:06.369Z,4.10
2023-05-03T16:39:34.386Z,4.43
2023-05-03T16:42:02.660Z,3.60
2023-05-03T16:44:31.071Z,3.63
2023-05-03T16:47:00.587Z,3.43
2023-05-03T16:49:28.561Z,3.50
2023-05-03T16:51:57.859Z,3.63
2023-05-03T16:54:25.813Z,3.83
2023-05-03T16:56:54.427Z,4.10
2023-05-03T16:59:22.557Z,3.50
2023-05-03T17:01:51.396Z,3.50
2023-05-03T17:04:21.545Z,3.00
2023-05-03T17:06:49.768Z,3.27
2023-05-03T17:09:18.153Z,3.50
2023-05-03T17:11:46.216Z,3.47
2023-05-03T17:14:15.512Z,3.20
2023-05-03T17:16:44.382Z,3.20
2023-05-03T17:19:12.753Z,2.90
2023-05-03T17:21:42.402Z,3.10
2023-05-03T17:24:11.143Z,3.73
2023-05-03T17:26:39.542Z,3.30
2023-05-03T17:29:07.710Z,4.20
2023-05-03T17:31:35.908Z,3.80
2023-05-03T17:34:04.352Z,3.50
2023-05-03T17:36:32.422Z,4.63
2023-05-03T17:39:01.965Z,3.53
2023-05-03T17:41:30.852Z,2.80
2023-05-03T17:43:59.087Z,3.80
2023-05-03T17:46:28.048Z,3.50
2023-05-03T17:48:57.718Z,5.10
2023-05-03T17:51:25.726Z,4.60
2023-05-03T17:53:54.768Z,4.40
2023-05-03T17:56:24.665Z,4.50
2023-05-03T17:58:52.634Z,4.50
2023-05-03T18:01:20.797Z,4.30
2023-05-03T18:03:48.837Z,4.83
2023-05-03T18:06:16.972Z,5.03
2023-05-03T18:08:44.951Z,5.63
2023-05-03T18:11:12.977Z,4.80
2023-05-03T18:13:42.703Z,5.40
2023-05-03T18:16:11.470Z,5.67
2023-05-03T18:18:39.485Z,4.80
2023-05-03T18:21:08.060Z,4.83
2023-05-03T18:23:36.099Z,6.20
2023-05-03T18:26:05.282Z,8.53
2023-05-03T18:28:33.236Z,6.00
2023-05-03T18:31:03.793Z,5.50
2023-05-03T18:33:33.694Z,5.00
2023-05-03T18:36:01.686Z,5.77
2023-05-03T18:38:29.726Z,6.70
2023-05-03T18:40:57.679Z,6.43
2023-05-03T18:43:25.655Z,5.63
2023-05-03T18:45:53.666Z,6.77
2023-05-03T18:48:23.020Z,5.30
2023-05-03T18:50:51.082Z,7.03
2023-05-03T18:53:19.018Z,6.73
2023-05-03T18:55:47.089Z,7.33
2023-05-03T18:58:15.639Z,6.60
2023-05-03T19:00:44.288Z,8.30
2023-05-03T19:03:12.238Z,9.77
2023-05-03T19:05:41.619Z,7.90
2023-05-03T19:08:09.593Z,7.10
2023-05-03T19:10:37.627Z,7.00
2023-05-03T19:13:05.795Z,6.33
2023-05-03T19:15:33.818Z,6.53
2023-05-03T19:18:01.899Z,5.93
2023-05-03T19:20:30.191Z,5.53
2023-05-03T19:22:59.509Z,4.70
2023-05-03T19:25:27.504Z,6.00
2023-05-03T19:27:55.398Z,6.07
2023-05-03T19:30:23.423Z,4.73
2023-05-03T19:32:51.479Z,5.13
2023-05-03T19:35:19.599Z,5.00
2023-05-03T19:37:47.581Z,7.63
2023-05-03T19:40:16.956Z,5.00
2023-05-03T19:42:44.876Z,4.80
2023-05-03T19:45:13.501Z,5.40
2023-05-03T19:47:41.721Z,5.40
2023-05-03T19:50:10.232Z,6.70
2023-05-03T19:52:38.449Z,6.10
2023-05-03T19:55:07.599Z,6.90
2023-05-03T19:57:37.374Z,7.30
2023-05-03T20:00:07.146Z,8.40
2023-05-03T20:02:36.532Z,16.83
2023-05-03T20:05:05.079Z,6.90
2023-05-03T20:07:33.968Z,5.50
2023-05-03T20:10:02.289Z,5.50
2023-05-03T20:12:30.422Z,5.07
2023-05-03T20:14:59.789Z,5.60
2023-05-03T20:17:27.907Z,4.90
2023-05-03T20:19:55.936Z,5.63
2023-05-03T20:22:23.864Z,5.87
2023-05-03T20:24:52.526Z,5.47
2023-05-03T20:27:21.066Z,7.13
2023-05-03T20:29:49.247Z,6.00
2023-05-03T20:32:18.652Z,4.70
2023-05-03T20:34:47.179Z,5.67
2023-05-03T20:37:15.160Z,5.97
2023-05-03T20:39:43.083Z,6.37
2023-05-03T20:42:11.081Z,5.17
2023-05-03T20:44:39.014Z,6.23
2023-05-03T20:47:06.961Z,6.00
2023-05-03T20:49:37.047Z,6.30
2023-05-03T20:52:05.420Z,5.90
2023-05-03T20:54:33.416Z,5.93
2023-05-03T20:57:02.184Z,5.57
2023-05-03T20:59:30.191Z,6.70
2023-05-03T21:01:58.218Z,6.90
2023-05-03T21:04:26.312Z,6.50
2023-05-03T21:06:55.946Z,7.67
2023-05-03T21:09:24.118Z,7.57
2023-05-03T21:11:52.178Z,8.50
2023-05-03T21:14:20.136Z,8.90
2023-05-03T21:16:48.200Z,9.47
2023-05-03T21:19:16.186Z,8.80
2023-05-03T21:21:44.130Z,7.03
2023-05-03T21:24:13.507Z,7.07
2023-05-03T21:26:41.486Z,7.00
2023-05-03T21:29:09.481Z,7.37
2023-05-03T21:31:37.559Z,7.37
2023-05-03T21:34:05.794Z,6.83
2023-05-03T21:36:33.786Z,7.33
2023-05-03T21:39:01.769Z,6.87
2023-05-03T21:41:31.066Z,7.43
2023-05-03T21:43:59.063Z,6.60
2023-05-03T21:46:27.317Z,8.20
2023-05-03T21:48:55.349Z,7.47
2023-05-03T21:51:24.933Z,7.67
2023-05-03T21:53:53.459Z,8.10
2023-05-03T21:56:21.674Z,8.10
2023-05-03T21:58:50.999Z,7.70
2023-05-03T22:01:20.063Z,7.20
2023-05-03T22:03:50.070Z,7.20
2023-05-03T22:06:18.268Z,7.07
2023-05-03T22:08:46.229Z,6.23
2023-05-03T22:11:14.691Z,6.10
2023-05-03T22:13:55.456Z,7.07
2023-05-03T22:16:28.507Z,7.37
2023-05-03T22:18:56.634Z,6.63
2023-05-03T22:21:24.652Z,7.10
2023-05-03T22:23:52.613Z,6.97
2023-05-03T22:26:20.621Z,7.70
2023-05-03T22:28:48.667Z,7.80
2023-05-03T22:31:17.627Z,7.67
2023-05-03T22:33:48.759Z,7.17
2023-05-03T22:36:16.750Z,6.63
2023-05-03T22:38:44.993Z,7.30
2023-05-03T22:41:12.945Z,7.27
2023-05-03T22:43:40.976Z,7.20
2023-05-03T22:46:09.059Z,6.57
2023-05-03T22:48:37.027Z,7.07
2023-05-03T22:51:06.872Z,6.63
2023-05-03T22:53:34.862Z,6.63
2023-05-03T22:56:05.484Z,7.63
2023-05-03T22:58:33.560Z,7.70
2023-05-03T23:01:01.862Z,7.77
2023-05-03T23:03:29.849Z,7.57
2023-05-03T23:05:58.034Z,7.57
2023-05-03T23:08:29.960Z,7.20
2023-05-03T23:10:59.452Z,7.20
2023-05-03T23:13:28.264Z,7.10
2023-05-03T23:15:56.302Z,6.47
2023-05-03T23:18:24.330Z,6.37
2023-05-03T23:20:52.324Z,6.80
2023-05-03T23:23:20.950Z,7.90
2023-05-03T23:25:50.324Z,7.17
2023-05-03T23:28:18.395Z,7.23
2023-05-03T23:30:47.217Z,6.47
2023-05-03T23:33:15.415Z,6.17
2023-05-03T23:35:43.747Z,7.90
2023-05-03T23:38:11.764Z,7.40
2023-05-03T23:40:40.028Z,7.00
2023-05-03T23:43:09.324Z,7.30
2023-05-03T23:45:37.277Z,8.87
2023-05-03T23:48:06.336Z,6.93
2023-05-03T23:50:34.306Z,7.17
2023-05-03T23:53:03.559Z,7.20
2023-05-03T23:55:31.595Z,7.83
2023-05-03T23:57:59.619Z,7.87
